createdAt,value
2019-03-24T00:00:36.131Z,97691.43
2019-03-24T00:03:03.554Z,97691.77
2019-03-24T00:05:30.800Z,97688.72
2019-03-24T00:07:57.081Z,97686.77
2019-03-24T00:10:23.700Z,97680.73
2019-03-24T00:12:49.985Z,97672.85
2019-03-24T00:15:25.801Z,97672.60
2019-03-24T00:17:44.806Z,97667.48
2019-03-24T00:20:11.819Z,97673.77
2019-03-24T00:22:38.491Z,97665.20
2019-03-24T00:25:06.738Z,97667.66
2019-03-24T00:27:33.142Z,97675.84
2019-03-24T00:29:59.453Z,97675.17
2019-03-24T00:32:25.988Z,97664.68
2019-03-24T00:34:52.278Z,97657.44
2019-03-24T00:37:18.567Z,97667.72
2019-03-24T00:39:45.157Z,97661.75
2019-03-24T00:42:11.679Z,97659.77
2019-03-24T00:44:38.034Z,97661.07
2019-03-24T00:47:04.535Z,97667.55
2019-03-24T00:49:30.955Z,97665.30
2019-03-24T00:51:57.480Z,97662.04
2019-03-24T00:54:23.799Z,97659.88
2019-03-24T00:56:50.086Z,97664.45
2019-03-24T00:59:16.524Z,97663.34
2019-03-24T01:01:42.907Z,97659.28
2019-03-24T01:04:09.249Z,97663.85
2019-03-24T01:06:35.838Z,97664.10
2019-03-24T01:09:05.558Z,97658.12
2019-03-24T01:11:33.700Z,97655.22
2019-03-24T01:14:00.133Z,97660.52
2019-03-24T01:16:26.981Z,97669.45
2019-03-24T01:18:53.600Z,97667.55
2019-03-24T01:21:20.041Z,97662.13
2019-03-24T01:23:46.432Z,97667.21
2019-03-24T01:26:12.984Z,97668.90
2019-03-24T01:28:39.377Z,97675.17
2019-03-24T01:31:05.982Z,97673.56
2019-03-24T01:33:33.439Z,97677.43
2019-03-24T01:35:59.994Z,97669.30
2019-03-24T01:38:26.386Z,97668.75
2019-03-24T01:40:52.931Z,97670.35
2019-03-24T01:43:19.321Z,97668.70
2019-03-24T01:45:45.698Z,97672.08
2019-03-24T01:48:12.200Z,97673.34
2019-03-24T01:50:38.495Z,97676.37
2019-03-24T01:53:05.005Z,97672.84
2019-03-24T01:55:31.519Z,97679.62
2019-03-24T01:57:58.009Z,97682.57
2019-03-24T02:00:24.522Z,97679.36
2019-03-24T02:02:51.123Z,97682.88
2019-03-24T02:05:17.887Z,97686.91
2019-03-24T02:07:44.342Z,97689.20
2019-03-24T02:10:11.871Z,97688.83
2019-03-24T02:12:38.521Z,97698.47
2019-03-24T02:15:06.647Z,97704.11
2019-03-24T02:17:32.932Z,97709.02
2019-03-24T02:19:59.359Z,97704.73
2019-03-24T02:22:25.850Z,97707.22
2019-03-24T02:24:52.260Z,97705.14
2019-03-24T02:27:18.786Z,97702.05
2019-03-24T02:29:45.290Z,97710.36
2019-03-24T02:32:11.827Z,97709.98
2019-03-24T02:34:38.425Z,97710.44
2019-03-24T02:37:04.877Z,97715.25
2019-03-24T02:39:31.377Z,97716.20
2019-03-24T02:41:58.199Z,97715.34
2019-03-24T02:44:24.692Z,97714.78
2019-03-24T02:46:51.343Z,97719.41
2019-03-24T02:49:17.832Z,97725.90
2019-03-24T02:51:44.247Z,97721.27
2019-03-24T02:54:10.752Z,97716.07
2019-03-24T02:56:37.465Z,97718.48
2019-03-24T02:59:04.348Z,97718.14
2019-03-24T03:01:31.511Z,97724.38
2019-03-24T03:03:58.017Z,97721.66
2019-03-24T03:06:24.547Z,97719.49
2019-03-24T03:08:51.329Z,97717.67
2019-03-24T03:11:17.909Z,97717.19
2019-03-24T03:13:44.444Z,97718.80
2019-03-24T03:16:11.034Z,97719.03
2019-03-24T03:18:37.637Z,97715.27
2019-03-24T03:21:04.248Z,97724.94
2019-03-24T03:23:31.077Z,97727.09
2019-03-24T03:25:58.571Z,97729.02
2019-03-24T03:28:25.074Z,97727.66
2019-03-24T03:30:51.682Z,97733.65
2019-03-24T03:33:18.728Z,97729.91
2019-03-24T03:35:45.336Z,97734.86
2019-03-24T03:38:11.842Z,97726.21
2019-03-24T03:40:38.562Z,97734.12
2019-03-24T03:43:05.813Z,97733.32
2019-03-24T03:45:32.328Z,97733.66
2019-03-24T03:47:58.683Z,97735.02
2019-03-24T03:50:25.197Z,97738.52
2019-03-24T03:52:52.146Z,97739.88
2019-03-24T03:55:18.845Z,97732.06
2019-03-24T03:57:45.251Z,97737.74
2019-03-24T04:00:12.282Z,97737.01
2019-03-24T04:02:38.858Z,97747.95
2019-03-24T04:05:05.398Z,97744.58
2019-03-24T04:07:31.867Z,97735.13
2019-03-24T04:09:58.278Z,97747.52
2019-03-24T04:12:25.044Z,97749.04
2019-03-24T04:14:51.437Z,97749.97
2019-03-24T04:17:18.148Z,97744.94
2019-03-24T04:19:44.707Z,97745.30
2019-03-24T04:22:11.552Z,97747.06
2019-03-24T04:24:37.950Z,97751.02
2019-03-24T04:27:04.683Z,97750.61
2019-03-24T04:29:31.190Z,97746.98
2019-03-24T04:31:57.551Z,97754.39
2019-03-24T04:34:24.018Z,97750.47
2019-03-24T04:36:50.512Z,97758.77
2019-03-24T04:39:17.191Z,97762.95
2019-03-24T04:41:43.599Z,97763.06
2019-03-24T04:44:09.953Z,97762.95
2019-03-24T04:46:36.443Z,97760.11
2019-03-24T04:49:02.990Z,97764.57
2019-03-24T04:51:29.278Z,97762.21
2019-03-24T04:53:55.968Z,97766.62
2019-03-24T04:56:22.248Z,97766.67
2019-03-24T04:58:48.893Z,97753.71
2019-03-24T05:01:15.397Z,97761.05
2019-03-24T05:03:41.863Z,97767.03
2019-03-24T05:06:08.380Z,97764.66
2019-03-24T05:08:34.983Z,97763.34
2019-03-24T05:11:01.535Z,97768.27
2019-03-24T05:13:27.958Z,97765.86
2019-03-24T05:15:54.388Z,97765.09
2019-03-24T05:18:20.891Z,97765.31
2019-03-24T05:20:47.175Z,97765.00
2019-03-24T05:23:13.790Z,97769.33
2019-03-24T05:25:40.284Z,97759.83
2019-03-24T05:28:06.610Z,97771.73
2019-03-24T05:30:33.007Z,97763.59
2019-03-24T05:32:59.479Z,97763.84
2019-03-24T05:35:25.762Z,97759.22
2019-03-24T05:37:52.154Z,97757.87
2019-03-24T05:40:19.038Z,97761.13
2019-03-24T05:42:45.453Z,97754.05
2019-03-24T05:45:12.422Z,97767.53
2019-03-24T05:47:38.970Z,97763.16
2019-03-24T05:50:07.077Z,97759.03
2019-03-24T05:52:33.607Z,97766.67
2019-03-24T05:54:59.895Z,97760.19
2019-03-24T05:57:26.539Z,97759.39
2019-03-24T05:59:52.924Z,97763.70
2019-03-24T06:02:19.431Z,97763.95
2019-03-24T06:04:46.056Z,97753.60
2019-03-24T06:07:13.087Z,97750.50
2019-03-24T06:09:39.819Z,97743.59
2019-03-24T06:12:06.311Z,97744.81
2019-03-24T06:14:32.980Z,97749.30
2019-03-24T06:16:59.367Z,97750.66
2019-03-24T06:19:25.671Z,97748.49
2019-03-24T06:21:52.280Z,97749.55
2019-03-24T06:24:18.691Z,97747.38
2019-03-24T06:26:45.194Z,97749.63
2019-03-24T06:29:11.590Z,97752.66
2019-03-24T06:31:38.225Z,97755.13
2019-03-24T06:34:06.119Z,97749.13
2019-03-24T06:36:32.546Z,97744.20
2019-03-24T06:38:58.938Z,97746.58
2019-03-24T06:41:25.503Z,97748.27
2019-03-24T06:43:51.895Z,97747.13
2019-03-24T06:46:18.297Z,97752.56
2019-03-24T06:48:44.792Z,97746.27
2019-03-24T06:51:11.502Z,97749.12
2019-03-24T06:53:37.967Z,97749.26
2019-03-24T06:56:04.539Z,97746.76
2019-03-24T06:58:30.850Z,97739.36
2019-03-24T07:00:57.231Z,97733.31
2019-03-24T07:03:23.659Z,97735.13
2019-03-24T07:05:50.053Z,97740.14
2019-03-24T07:08:16.972Z,97742.16
2019-03-24T07:10:43.391Z,97736.66
2019-03-24T07:13:09.858Z,97737.06
2019-03-24T07:15:36.343Z,97735.55
2019-03-24T07:18:08.343Z,97740.05
2019-03-24T07:20:31.390Z,97742.68
2019-03-24T07:22:57.814Z,97743.05
2019-03-24T07:25:24.360Z,97744.96
2019-03-24T07:27:50.800Z,97744.96
2019-03-24T07:30:18.487Z,97739.53
2019-03-24T07:32:44.838Z,97727.39
2019-03-24T07:35:11.534Z,97742.86
2019-03-24T07:37:39.691Z,97746.38
2019-03-24T07:40:07.899Z,97740.20
2019-03-24T07:42:34.305Z,97740.20
2019-03-24T07:45:01.078Z,97746.05
2019-03-24T07:47:27.486Z,97736.84
2019-03-24T07:49:53.919Z,97736.04
2019-03-24T07:52:20.739Z,97733.81
2019-03-24T07:54:47.175Z,97731.91
2019-03-24T07:57:13.570Z,97737.73
2019-03-24T07:59:40.336Z,97738.72
2019-03-24T08:02:06.835Z,97738.72
2019-03-24T08:04:33.531Z,97726.73
2019-03-24T08:07:00.106Z,97726.73
2019-03-24T08:09:26.405Z,97730.56
2019-03-24T08:11:52.935Z,97729.45
2019-03-24T08:14:19.620Z,97727.20
2019-03-24T08:16:46.076Z,97726.98
2019-03-24T08:19:12.528Z,97715.63
2019-03-24T08:21:38.938Z,97717.67
2019-03-24T08:24:05.714Z,97715.98
2019-03-24T08:26:32.118Z,97714.31
2019-03-24T08:28:58.887Z,97713.77
2019-03-24T08:31:25.524Z,97704.80
2019-03-24T08:33:52.284Z,97697.68
2019-03-24T08:36:18.789Z,97697.64
2019-03-24T08:38:45.342Z,97691.97
2019-03-24T08:41:11.900Z,97688.41
2019-03-24T08:43:38.347Z,97684.41
2019-03-24T08:46:04.745Z,97690.23
2019-03-24T08:48:40.456Z,97685.20
2019-03-24T08:50:59.585Z,97687.49
2019-03-24T08:53:25.944Z,97677.56
2019-03-24T08:55:52.402Z,97674.17
2019-03-24T08:58:19.052Z,97666.27
2019-03-24T09:00:45.880Z,97669.28
2019-03-24T09:03:12.305Z,97670.05
2019-03-24T09:05:38.709Z,97666.06
2019-03-24T09:08:05.257Z,97668.23
2019-03-24T09:10:31.648Z,97661.72
2019-03-24T09:12:58.289Z,97657.22
2019-03-24T09:15:24.682Z,97660.27
2019-03-24T09:17:51.446Z,97650.58
2019-03-24T09:20:17.865Z,97645.86
2019-03-24T09:22:44.235Z,97641.17
2019-03-24T09:25:11.101Z,97645.10
2019-03-24T09:27:37.516Z,97638.98
2019-03-24T09:30:11.838Z,97636.04
2019-03-24T09:32:38.429Z,97641.94
2019-03-24T09:35:05.340Z,97638.20
2019-03-24T09:37:32.118Z,97633.77
2019-03-24T09:39:58.519Z,97632.75
2019-03-24T09:42:24.959Z,97634.58
2019-03-24T09:44:51.415Z,97634.22
2019-03-24T09:47:17.985Z,97633.09
2019-03-24T09:49:44.418Z,97634.44
2019-03-24T09:52:10.871Z,97638.77
2019-03-24T09:54:37.558Z,97630.13
2019-03-24T09:57:04.162Z,97626.03
2019-03-24T09:59:30.613Z,97618.17
2019-03-24T10:01:56.995Z,97612.23
2019-03-24T10:04:23.619Z,97603.59
2019-03-24T10:06:50.262Z,97605.52
2019-03-24T10:09:16.683Z,97596.30
2019-03-24T10:11:43.083Z,97598.33
2019-03-24T10:14:09.740Z,97589.98
2019-03-24T10:16:36.143Z,97596.09
2019-03-24T10:19:13.288Z,97585.02
2019-03-24T10:21:31.099Z,97590.84
2019-03-24T10:23:57.500Z,97586.47
2019-03-24T10:26:24.049Z,97583.73
2019-03-24T10:28:50.449Z,97587.05
2019-03-24T10:31:16.933Z,97590.33
2019-03-24T10:33:43.667Z,97582.71
2019-03-24T10:36:10.246Z,97580.80
2019-03-24T10:38:36.930Z,97576.38
2019-03-24T10:41:03.476Z,97576.02
2019-03-24T10:43:30.002Z,97578.30
2019-03-24T10:45:56.577Z,97573.16
2019-03-24T10:48:33.193Z,97562.87
2019-03-24T10:50:51.313Z,97560.36
2019-03-24T10:53:17.885Z,97564.66
2019-03-24T10:55:44.650Z,97553.03
2019-03-24T10:58:11.037Z,97554.48
2019-03-24T11:00:42.645Z,97553.56
2019-03-24T11:03:09.351Z,97557.44
2019-03-24T11:05:35.990Z,97548.77
2019-03-24T11:08:02.478Z,97540.78
2019-03-24T11:10:28.895Z,97535.99
2019-03-24T11:12:55.383Z,97532.37
2019-03-24T11:15:22.335Z,97530.86
2019-03-24T11:17:48.620Z,97524.36
2019-03-24T11:20:15.167Z,97518.73
2019-03-24T11:22:41.564Z,97515.87
2019-03-24T11:25:09.173Z,97513.31
2019-03-24T11:27:36.392Z,97498.66
2019-03-24T11:30:10.946Z,97498.39
2019-03-24T11:32:38.326Z,97492.49
2019-03-24T11:35:06.134Z,97487.24
2019-03-24T11:37:32.442Z,97478.92
2019-03-24T11:39:58.971Z,97478.74
2019-03-24T11:42:25.403Z,97479.59
2019-03-24T11:44:51.900Z,97473.89
2019-03-24T11:47:26.239Z,97461.98
2019-03-24T11:49:49.074Z,97463.11
2019-03-24T11:52:15.362Z,97457.02
2019-03-24T11:54:41.683Z,97455.02
2019-03-24T11:57:08.123Z,97451.30
2019-03-24T11:59:34.434Z,97441.59
2019-03-24T12:02:00.947Z,97441.72
2019-03-24T12:04:27.383Z,97434.42
2019-03-24T12:06:53.772Z,97427.16
2019-03-24T12:09:20.449Z,97429.17
2019-03-24T12:11:46.923Z,97422.67
2019-03-24T12:14:13.217Z,97424.42
2019-03-24T12:16:39.771Z,97423.08
2019-03-24T12:19:06.289Z,97412.63
2019-03-24T12:21:32.785Z,97410.55
2019-03-24T12:23:59.104Z,97398.65
2019-03-24T12:26:25.504Z,97398.17
2019-03-24T12:28:52.051Z,97394.70
2019-03-24T12:31:18.342Z,97389.67
2019-03-24T12:33:44.760Z,97379.03
2019-03-24T12:36:11.151Z,97371.10
2019-03-24T12:38:38.051Z,97363.61
2019-03-24T12:41:04.537Z,97363.77
2019-03-24T12:43:30.822Z,97356.48
2019-03-24T12:45:57.562Z,97349.52
2019-03-24T12:48:24.343Z,97342.73
2019-03-24T12:50:50.917Z,97338.48
2019-03-24T12:53:17.716Z,97345.34
2019-03-24T12:55:44.106Z,97349.90
2019-03-24T12:58:10.846Z,97349.41
2019-03-24T13:00:38.346Z,97338.70
2019-03-24T13:03:05.560Z,97349.45
2019-03-24T13:05:32.139Z,97335.34
2019-03-24T13:08:10.718Z,97332.42
2019-03-24T13:10:37.025Z,97329.33
2019-03-24T13:13:03.410Z,97322.33
2019-03-24T13:15:29.750Z,97318.92
2019-03-24T13:17:56.033Z,97317.12
2019-03-24T13:20:36.460Z,97314.55
2019-03-24T13:22:50.854Z,97311.27
2019-03-24T13:25:17.589Z,97306.75
2019-03-24T13:27:43.995Z,97306.75
2019-03-24T13:30:10.712Z,97302.42
2019-03-24T13:32:37.033Z,97300.39
2019-03-24T13:35:04.040Z,97298.16
2019-03-24T13:37:30.566Z,97290.66
2019-03-24T13:39:56.963Z,97283.72
2019-03-24T13:42:23.537Z,97284.59
2019-03-24T13:44:49.967Z,97274.41
2019-03-24T13:47:16.504Z,97278.02
2019-03-24T13:49:42.911Z,97273.24
2019-03-24T13:52:09.332Z,97269.42
2019-03-24T13:54:35.749Z,97263.45
2019-03-24T13:57:02.115Z,97261.06
2019-03-24T13:59:28.882Z,97257.30
2019-03-24T14:01:55.313Z,97249.60
2019-03-24T14:04:21.943Z,97245.53
2019-03-24T14:06:48.462Z,97241.72
2019-03-24T14:09:15.023Z,97238.69
2019-03-24T14:11:41.423Z,97234.27
2019-03-24T14:14:08.020Z,97236.38
2019-03-24T14:16:34.826Z,97234.56
2019-03-24T14:19:01.360Z,97226.13
2019-03-24T14:21:27.983Z,97218.71
2019-03-24T14:23:54.267Z,97216.67
2019-03-24T14:26:20.591Z,97224.59
2019-03-24T14:28:46.910Z,97217.79
2019-03-24T14:31:13.217Z,97215.88
2019-03-24T14:33:40.571Z,97207.16
2019-03-24T14:36:07.004Z,97208.66
2019-03-24T14:38:33.411Z,97202.45
2019-03-24T14:40:59.750Z,97205.69
2019-03-24T14:43:26.295Z,97202.28
2019-03-24T14:45:52.809Z,97195.22
2019-03-24T14:48:19.172Z,97198.23
2019-03-24T14:50:54.569Z,97187.36
2019-03-24T14:53:14.726Z,97182.14
2019-03-24T14:55:41.121Z,97170.11
2019-03-24T14:58:07.635Z,97169.44
2019-03-24T15:00:41.706Z,97175.86
2019-03-24T15:03:08.503Z,97175.88
2019-03-24T15:05:35.491Z,97175.13
2019-03-24T15:08:02.589Z,97168.70
2019-03-24T15:10:29.593Z,97175.58
2019-03-24T15:12:55.983Z,97171.30
2019-03-24T15:15:22.420Z,97156.32
2019-03-24T15:17:48.803Z,97157.36
2019-03-24T15:20:15.150Z,97154.09
2019-03-24T15:22:41.443Z,97161.84
2019-03-24T15:25:08.187Z,97160.74
2019-03-24T15:27:34.581Z,97160.98
2019-03-24T15:30:01.517Z,97157.95
2019-03-24T15:32:28.042Z,97159.91
2019-03-24T15:34:54.399Z,97148.66
2019-03-24T15:37:21.057Z,97145.84
2019-03-24T15:39:47.464Z,97146.73
2019-03-24T15:42:14.100Z,97146.08
2019-03-24T15:44:40.379Z,97144.03
2019-03-24T15:47:06.881Z,97141.56
2019-03-24T15:49:33.212Z,97136.56
2019-03-24T15:51:59.643Z,97137.73
2019-03-24T15:54:26.050Z,97132.31
2019-03-24T15:56:52.371Z,97125.86
2019-03-24T15:59:18.886Z,97130.55
2019-03-24T16:01:45.193Z,97128.38
2019-03-24T16:04:11.735Z,97124.46
2019-03-24T16:06:38.379Z,97124.03
2019-03-24T16:09:06.938Z,97121.43
2019-03-24T16:11:33.268Z,97124.72
2019-03-24T16:13:59.713Z,97125.67
2019-03-24T16:16:26.107Z,97125.42
2019-03-24T16:18:53.147Z,97129.30
2019-03-24T16:21:27.371Z,97127.25
2019-03-24T16:23:47.978Z,97121.16
2019-03-24T16:26:14.716Z,97131.58
2019-03-24T16:28:41.000Z,97131.58
2019-03-24T16:31:07.659Z,97104.52
2019-03-24T16:33:34.116Z,97104.52
2019-03-24T16:36:00.445Z,97113.49
2019-03-24T16:38:27.543Z,97117.02
2019-03-24T16:40:54.030Z,97115.08
2019-03-24T16:43:21.235Z,97119.37
2019-03-24T16:45:47.917Z,97119.59
2019-03-24T16:48:14.454Z,97120.63
2019-03-24T16:50:40.951Z,97113.45
2019-03-24T16:53:07.427Z,97107.67
2019-03-24T16:55:33.804Z,97109.70
2019-03-24T16:58:00.184Z,97112.64
2019-03-24T17:00:27.029Z,97110.11
2019-03-24T17:02:53.417Z,97115.31
2019-03-24T17:05:20.031Z,97104.42
2019-03-24T17:07:46.348Z,97106.56
2019-03-24T17:10:13.067Z,97106.42
2019-03-24T17:12:39.811Z,97094.64
2019-03-24T17:15:07.719Z,97096.89
2019-03-24T17:17:34.622Z,97092.11
2019-03-24T17:20:01.007Z,97100.06
2019-03-24T17:22:27.483Z,97098.23
2019-03-24T17:24:53.926Z,97090.97
2019-03-24T17:27:22.195Z,97089.37
2019-03-24T17:29:48.602Z,97084.49
2019-03-24T17:32:15.066Z,97080.41
2019-03-24T17:34:41.857Z,97079.62
2019-03-24T17:37:08.544Z,97072.38
2019-03-24T17:39:34.939Z,97086.18
2019-03-24T17:42:01.409Z,97073.51
2019-03-24T17:44:27.967Z,97077.91
2019-03-24T17:46:54.400Z,97072.80
2019-03-24T17:49:20.809Z,97077.35
2019-03-24T17:51:47.342Z,97074.40
2019-03-24T17:54:13.917Z,97072.56
2019-03-24T17:56:40.243Z,97073.91
2019-03-24T17:59:06.671Z,97073.00
2019-03-24T18:01:33.281Z,97076.23
2019-03-24T18:04:00.019Z,97071.34
2019-03-24T18:06:26.471Z,97074.03
2019-03-24T18:08:53.103Z,97071.53
2019-03-24T18:11:19.488Z,97071.70
2019-03-24T18:13:45.920Z,97072.16
2019-03-24T18:16:13.003Z,97065.53
2019-03-24T18:18:39.424Z,97064.39
2019-03-24T18:21:05.706Z,97064.13
2019-03-24T18:23:32.019Z,97072.00
2019-03-24T18:25:58.456Z,97074.45
2019-03-24T18:28:24.807Z,97078.12
2019-03-24T18:30:51.294Z,97075.42
2019-03-24T18:33:17.694Z,97079.61
2019-03-24T18:35:44.498Z,97084.56
2019-03-24T18:38:11.108Z,97084.33
2019-03-24T18:40:37.607Z,97086.00
2019-03-24T18:43:04.686Z,97083.84
2019-03-24T18:45:31.081Z,97082.48
2019-03-24T18:47:57.517Z,97082.84
2019-03-24T18:50:23.883Z,97081.48
2019-03-24T18:52:50.531Z,97078.98
2019-03-24T18:55:17.039Z,97072.30
2019-03-24T18:57:43.485Z,97073.39
2019-03-24T19:00:12.586Z,97070.44
2019-03-24T19:02:38.995Z,97066.45
2019-03-24T19:05:07.027Z,97074.04
2019-03-24T19:07:33.446Z,97070.44
2019-03-24T19:09:59.815Z,97075.63
2019-03-24T19:12:26.599Z,97077.23
2019-03-24T19:14:52.994Z,97075.08
2019-03-24T19:17:19.323Z,97072.03
2019-03-24T19:19:45.638Z,97073.66
2019-03-24T19:22:11.987Z,97069.83
2019-03-24T19:24:38.284Z,97069.83
2019-03-24T19:27:04.782Z,97076.05
2019-03-24T19:29:31.324Z,97071.39
2019-03-24T19:31:57.881Z,97073.34
2019-03-24T19:34:24.224Z,97074.11
2019-03-24T19:36:50.927Z,97067.55
2019-03-24T19:39:17.666Z,97064.28
2019-03-24T19:41:44.111Z,97066.44
2019-03-24T19:44:10.629Z,97057.97
2019-03-24T19:46:37.170Z,97054.69
2019-03-24T19:49:03.604Z,97049.02
2019-03-24T19:51:30.041Z,97054.69
2019-03-24T19:53:56.549Z,97050.30
2019-03-24T19:56:22.957Z,97040.23
2019-03-24T19:58:49.315Z,97026.33
2019-03-24T20:01:15.644Z,97031.17
2019-03-24T20:03:43.527Z,97033.12
2019-03-24T20:06:10.577Z,97023.94
2019-03-24T20:08:36.965Z,97017.48
2019-03-24T20:11:03.448Z,97016.45
2019-03-24T20:13:30.493Z,97015.41
2019-03-24T20:15:56.924Z,97018.69
2019-03-24T20:18:23.317Z,97009.98
2019-03-24T20:20:51.982Z,97009.09
2019-03-24T20:23:18.268Z,97004.46
2019-03-24T20:25:45.213Z,97003.10
2019-03-24T20:28:11.789Z,97001.75
2019-03-24T20:30:38.451Z,97005.81
2019-03-24T20:33:05.031Z,97000.16
2019-03-24T20:35:31.488Z,97000.95
2019-03-24T20:37:57.842Z,97004.46
2019-03-24T20:40:24.489Z,97006.61
2019-03-24T20:42:51.369Z,97008.53
2019-03-24T20:45:18.074Z,97004.70
2019-03-24T20:47:44.369Z,96997.67
2019-03-24T20:50:11.738Z,96998.47
2019-03-24T20:52:38.123Z,96997.44
2019-03-24T20:55:05.998Z,96995.05
2019-03-24T20:57:32.695Z,96988.82
2019-03-24T20:59:59.370Z,96987.58
2019-03-24T21:02:25.809Z,96990.06
2019-03-24T21:04:52.151Z,96985.72
2019-03-24T21:07:18.557Z,96985.01
2019-03-24T21:09:46.570Z,96972.67
2019-03-24T21:12:13.051Z,96968.78
2019-03-24T21:14:39.357Z,96970.98
2019-03-24T21:17:05.847Z,96957.63
2019-03-24T21:19:32.375Z,96957.50
2019-03-24T21:21:58.783Z,96957.03
2019-03-24T21:24:25.230Z,96952.81
2019-03-24T21:26:51.706Z,96938.88
2019-03-24T21:29:18.203Z,96942.36
2019-03-24T21:31:44.597Z,96945.24
2019-03-24T21:34:11.074Z,96940.25
2019-03-24T21:36:37.809Z,96952.55
2019-03-24T21:39:06.439Z,96950.59
2019-03-24T21:41:32.833Z,96947.16
2019-03-24T21:43:59.258Z,96943.41
2019-03-24T21:46:25.581Z,96937.67
2019-03-24T21:48:52.226Z,96932.80
2019-03-24T21:51:18.626Z,96922.28
2019-03-24T21:53:45.097Z,96925.91
2019-03-24T21:56:14.103Z,96929.73
2019-03-24T21:58:40.253Z,96927.02
2019-03-24T22:01:07.112Z,96924.95
2019-03-24T22:03:33.692Z,96927.42
2019-03-24T22:06:00.181Z,96938.27
2019-03-24T22:08:26.621Z,96942.45
2019-03-24T22:10:53.008Z,96941.30
2019-03-24T22:13:19.711Z,96938.27
2019-03-24T22:15:46.098Z,96929.90
2019-03-24T22:18:12.691Z,96926.39
2019-03-24T22:20:48.414Z,96918.61
2019-03-24T22:23:07.558Z,96915.89
2019-03-24T22:25:33.942Z,96917.02
2019-03-24T22:28:00.559Z,96916.77
2019-03-24T22:30:29.207Z,96907.28
2019-03-24T22:32:55.697Z,96907.05
2019-03-24T22:35:22.083Z,96907.69
2019-03-24T22:37:48.583Z,96895.28
2019-03-24T22:40:15.184Z,96888.03
2019-03-24T22:42:41.756Z,96883.48
2019-03-24T22:45:09.151Z,96874.32
2019-03-24T22:47:35.638Z,96865.39
2019-03-24T22:50:06.928Z,96875.44
2019-03-24T22:52:33.413Z,96869.01
2019-03-24T22:55:00.328Z,96865.27
2019-03-24T22:57:26.887Z,96863.59
2019-03-24T22:59:53.321Z,96859.73
2019-03-24T23:02:19.998Z,96866.06
2019-03-24T23:04:46.368Z,96861.76
2019-03-24T23:07:12.810Z,96861.52
2019-03-24T23:09:39.359Z,96866.47
2019-03-24T23:12:05.951Z,96862.16
2019-03-24T23:14:32.635Z,96852.44
2019-03-24T23:16:59.032Z,96854.83
2019-03-24T23:19:25.501Z,96847.81
2019-03-24T23:21:51.946Z,96854.38
2019-03-24T23:24:18.379Z,96851.67
2019-03-24T23:26:44.897Z,96853.35
2019-03-24T23:29:11.487Z,96853.43
2019-03-24T23:31:38.182Z,96855.11
2019-03-24T23:34:05.599Z,96850.80
2019-03-24T23:36:32.002Z,96846.53
2019-03-24T23:38:58.426Z,96842.67
2019-03-24T23:41:24.828Z,96842.47
2019-03-24T23:43:51.164Z,96847.65
2019-03-24T23:46:17.805Z,96834.10
2019-03-24T23:48:44.222Z,96835.30
2019-03-24T23:51:10.622Z,96835.63
2019-03-24T23:53:37.097Z,96828.61
2019-03-24T23:56:03.497Z,96825.10
2019-03-24T23:58:40.353Z,96822.19
